createdAt,value
2019-02-07T00:01:26.161Z,10.65
2019-02-07T00:03:58.337Z,11.38
2019-02-07T00:06:30.477Z,10.53
2019-02-07T00:09:03.495Z,11.60
2019-02-07T00:11:36.649Z,10.18
2019-02-07T00:14:09.080Z,10.05
2019-02-07T00:16:41.256Z,10.78
2019-02-07T00:19:13.399Z,9.10
2019-02-07T00:21:45.574Z,9.55
2019-02-07T00:24:17.744Z,10.40
2019-02-07T00:26:50.093Z,10.23
2019-02-07T00:29:22.311Z,8.75
2019-02-07T00:31:54.772Z,9.40
2019-02-07T00:34:26.914Z,9.40
2019-02-07T00:36:59.106Z,9.38
2019-02-07T00:39:31.242Z,8.70
2019-02-07T00:42:03.420Z,7.53
2019-02-07T00:44:35.557Z,8.23
2019-02-07T00:47:07.806Z,9.95
2019-02-07T00:49:40.347Z,9.88
2019-02-07T00:52:13.405Z,8.80
2019-02-07T00:54:45.655Z,8.98
2019-02-07T00:57:17.834Z,7.87
2019-02-07T00:59:49.991Z,8.68
2019-02-07T01:02:22.439Z,9.63
2019-02-07T01:04:54.596Z,9.83
2019-02-07T01:07:26.782Z,9.28
2019-02-07T01:09:58.987Z,8.43
2019-02-07T01:12:31.150Z,9.63
2019-02-07T01:15:04.054Z,8.35
2019-02-07T01:17:36.242Z,8.35
2019-02-07T01:20:10.057Z,9.38
2019-02-07T01:22:42.318Z,9.63
2019-02-07T01:25:16.447Z,9.50
2019-02-07T01:27:48.792Z,8.58
2019-02-07T01:30:22.583Z,8.20
2019-02-07T01:32:54.741Z,9.48
2019-02-07T01:35:26.971Z,8.18
2019-02-07T01:37:59.430Z,8.25
2019-02-07T01:40:31.555Z,8.33
2019-02-07T01:43:03.716Z,9.70
2019-02-07T01:45:35.918Z,8.40
2019-02-07T01:48:08.124Z,10.15
2019-02-07T01:50:40.319Z,9.50
2019-02-07T01:53:12.585Z,8.90
2019-02-07T01:55:44.725Z,8.78
2019-02-07T01:58:16.937Z,9.00
2019-02-07T02:00:49.094Z,8.45
2019-02-07T02:03:22.086Z,9.48
2019-02-07T02:05:54.232Z,8.53
2019-02-07T02:08:26.436Z,9.20
2019-02-07T02:10:58.625Z,8.55
2019-02-07T02:13:30.780Z,9.40
2019-02-07T02:16:02.927Z,9.63
2019-02-07T02:18:35.128Z,9.20
2019-02-07T02:21:07.278Z,10.20
2019-02-07T02:23:39.549Z,9.45
2019-02-07T02:26:11.987Z,9.10
2019-02-07T02:28:44.174Z,7.03
2019-02-07T02:31:16.312Z,9.33
2019-02-07T02:33:48.470Z,8.50
2019-02-07T02:36:20.607Z,8.95
2019-02-07T02:38:52.946Z,9.48
2019-02-07T02:41:25.084Z,9.25
2019-02-07T02:43:57.255Z,8.78
2019-02-07T02:46:29.421Z,8.63
2019-02-07T02:49:01.655Z,8.50
2019-02-07T02:51:33.853Z,8.58
2019-02-07T02:54:08.644Z,8.88
2019-02-07T02:56:40.897Z,9.38
2019-02-07T02:59:13.087Z,9.15
2019-02-07T03:01:52.849Z,8.80
2019-02-07T03:04:29.303Z,8.65
2019-02-07T03:07:08.781Z,9.25
2019-02-07T03:09:45.516Z,8.70
2019-02-07T03:12:19.315Z,7.97
2019-02-07T03:14:56.149Z,9.00
2019-02-07T03:17:29.978Z,10.20
2019-02-07T03:20:09.446Z,7.85
2019-02-07T03:22:43.251Z,7.30
2019-02-07T03:25:25.888Z,9.05
2019-02-07T03:28:14.656Z,7.83
2019-02-07T03:30:51.370Z,8.43
2019-02-07T03:33:37.415Z,7.08
2019-02-07T03:36:11.306Z,9.53
2019-02-07T03:38:47.515Z,8.00
2019-02-07T03:41:36.389Z,7.90
2019-02-07T03:44:10.180Z,8.85
2019-02-07T03:46:49.847Z,8.98
2019-02-07T03:49:33.079Z,7.97
2019-02-07T03:52:15.939Z,7.83
2019-02-07T03:54:49.745Z,8.68
2019-02-07T03:57:35.739Z,8.03
2019-02-07T04:00:27.197Z,10.00
2019-02-07T04:03:00.977Z,8.83
2019-02-07T04:05:34.785Z,7.87
2019-02-07T04:08:14.564Z,7.78
2019-02-07T04:10:48.347Z,6.75
2019-02-07T04:13:34.152Z,7.33
2019-02-07T04:16:15.330Z,7.62
2019-02-07T04:19:04.475Z,5.30
2019-02-07T04:21:41.199Z,7.83
2019-02-07T04:24:17.923Z,7.83
2019-02-07T04:27:05.727Z,6.53
2019-02-07T04:29:55.633Z,8.23
2019-02-07T04:32:46.278Z,8.35
2019-02-07T04:35:25.549Z,7.67
2019-02-07T04:37:59.380Z,8.78
2019-02-07T04:40:42.539Z,7.47
2019-02-07T04:43:31.493Z,7.87
2019-02-07T04:46:27.070Z,8.18
2019-02-07T04:48:57.170Z,7.62
2019-02-07T04:51:31.036Z,8.58
2019-02-07T04:54:04.977Z,8.63
2019-02-07T04:56:50.996Z,9.78
2019-02-07T04:59:41.307Z,7.85
2019-02-07T05:02:26.984Z,8.03
2019-02-07T05:05:15.936Z,8.20
2019-02-07T05:07:49.751Z,8.58
2019-02-07T05:10:35.812Z,8.28
2019-02-07T05:13:27.431Z,8.00
2019-02-07T05:16:06.989Z,7.78
2019-02-07T05:18:57.051Z,4.50
2019-02-07T05:21:48.737Z,8.60
2019-02-07T05:24:37.476Z,7.78
2019-02-07T05:27:19.958Z,7.33
2019-02-07T05:30:05.599Z,8.25
2019-02-07T05:32:45.060Z,6.97
2019-02-07T05:35:18.845Z,8.40
2019-02-07T05:37:52.627Z,7.87
2019-02-07T05:40:29.155Z,8.28
2019-02-07T05:43:03.291Z,8.20
2019-02-07T05:45:37.090Z,7.08
2019-02-07T05:48:27.453Z,7.55
2019-02-07T05:51:19.194Z,7.37
2019-02-07T05:53:53.016Z,7.62
2019-02-07T05:56:29.768Z,7.30
2019-02-07T05:59:06.554Z,7.62
2019-02-07T06:01:40.371Z,8.13
2019-02-07T06:04:14.185Z,8.03
2019-02-07T06:06:48.010Z,7.95
2019-02-07T06:09:21.817Z,7.62
2019-02-07T06:12:13.418Z,7.30
2019-02-07T06:14:56.221Z,8.10
2019-02-07T06:17:45.181Z,7.25
2019-02-07T06:20:24.658Z,9.20
2019-02-07T06:23:14.869Z,9.45
2019-02-07T06:25:48.687Z,8.35
2019-02-07T06:28:38.589Z,9.28
2019-02-07T06:31:21.223Z,8.65
2019-02-07T06:34:12.947Z,10.00
2019-02-07T06:36:52.328Z,10.08
2019-02-07T06:39:28.818Z,10.72
2019-02-07T06:42:20.713Z,10.50
2019-02-07T06:45:10.835Z,9.88
2019-02-07T06:48:00.788Z,9.95
2019-02-07T06:50:52.530Z,9.80
2019-02-07T06:53:38.396Z,10.15
2019-02-07T06:56:15.174Z,11.03
2019-02-07T06:58:48.944Z,9.00
2019-02-07T07:01:34.800Z,10.25
2019-02-07T07:04:17.637Z,8.25
2019-02-07T07:06:51.579Z,9.83
2019-02-07T07:09:43.524Z,11.05
2019-02-07T07:12:17.629Z,8.48
2019-02-07T07:14:51.455Z,9.50
2019-02-07T07:17:26.588Z,9.18
2019-02-07T07:20:00.758Z,8.98
2019-02-07T07:22:46.705Z,9.38
2019-02-07T07:25:35.308Z,10.00
2019-02-07T07:28:09.286Z,10.15
2019-02-07T07:30:48.822Z,9.23
2019-02-07T07:33:25.317Z,9.00
2019-02-07T07:36:11.243Z,7.97
2019-02-07T07:38:57.194Z,9.00
2019-02-07T07:41:31.072Z,9.13
2019-02-07T07:44:22.793Z,7.95
2019-02-07T07:46:59.396Z,9.88
2019-02-07T07:49:35.628Z,10.40
2019-02-07T07:52:21.852Z,10.55
2019-02-07T07:55:01.723Z,9.50
2019-02-07T07:57:52.920Z,8.48
2019-02-07T08:05:13.140Z,8.08
2019-02-07T08:08:56.156Z,6.93
2019-02-07T08:11:29.952Z,7.20
2019-02-07T08:14:06.790Z,7.55
2019-02-07T08:16:43.614Z,7.83
2019-02-07T08:19:32.480Z,9.15
2019-02-07T08:22:09.195Z,9.15
2019-02-07T08:24:42.988Z,8.75
2019-02-07T08:27:19.686Z,8.55
2019-02-07T08:29:53.472Z,8.50
2019-02-07T08:32:39.592Z,9.55
2019-02-07T08:35:30.315Z,7.37
2019-02-07T08:38:08.509Z,7.25
2019-02-07T08:40:45.397Z,6.47
2019-02-07T08:43:22.028Z,5.40
2019-02-07T08:46:12.555Z,5.87
2019-02-07T08:49:01.422Z,5.75
2019-02-07T08:51:47.473Z,6.20
2019-02-07T08:54:23.984Z,4.28
2019-02-07T08:57:14.459Z,5.30
2019-02-07T08:59:48.411Z,2.75
2019-02-07T09:02:22.212Z,4.90
2019-02-07T09:05:05.161Z,4.92
2019-02-07T09:07:50.958Z,3.90
2019-02-07T09:10:24.724Z,2.27
2019-02-07T09:12:58.581Z,3.83
2019-02-07T09:15:41.723Z,4.37
2019-02-07T09:18:33.947Z,3.55
2019-02-07T09:21:07.736Z,4.10
2019-02-07T09:23:58.258Z,3.55
2019-02-07T09:26:32.042Z,3.35
2019-02-07T09:29:05.861Z,3.85
2019-02-07T09:31:42.807Z,3.65
2019-02-07T09:34:22.710Z,3.58
2019-02-07T09:37:14.657Z,3.92
2019-02-07T09:40:06.456Z,4.78
2019-02-07T09:42:49.044Z,5.03
2019-02-07T09:45:35.009Z,3.92
2019-02-07T09:48:21.396Z,4.80
2019-02-07T09:50:56.314Z,4.58
2019-02-07T09:53:46.188Z,5.35
2019-02-07T09:56:31.819Z,5.03
2019-02-07T09:59:08.660Z,4.37
2019-02-07T10:01:42.469Z,4.60
2019-02-07T10:04:19.105Z,4.85
2019-02-07T10:06:55.937Z,4.35
2019-02-07T10:09:32.448Z,4.47
2019-02-07T10:12:22.420Z,4.87
2019-02-07T10:14:58.960Z,4.85
2019-02-07T10:17:38.822Z,4.12
2019-02-07T10:20:12.974Z,3.90
2019-02-07T10:22:46.903Z,5.00
2019-02-07T10:25:26.672Z,3.00
2019-02-07T10:28:02.847Z,4.12
2019-02-07T10:30:36.923Z,3.75
2019-02-07T10:33:17.517Z,3.10
2019-02-07T10:36:00.288Z,3.50
2019-02-07T10:38:50.592Z,3.87
2019-02-07T10:41:27.097Z,3.60
2019-02-07T10:44:15.682Z,4.12
2019-02-07T10:46:58.188Z,3.65
2019-02-07T10:49:47.173Z,4.00
2019-02-07T10:52:25.625Z,3.17
2019-02-07T10:55:02.156Z,3.42
2019-02-07T10:57:38.875Z,3.50
2019-02-07T11:00:33.925Z,3.42
2019-02-07T11:03:07.768Z,3.60
2019-02-07T11:05:50.557Z,3.33
2019-02-07T11:08:24.622Z,3.00
2019-02-07T11:11:02.885Z,2.60
2019-02-07T11:13:39.656Z,2.87
2019-02-07T11:16:20.421Z,3.08
2019-02-07T11:18:56.902Z,3.50
2019-02-07T11:21:36.703Z,3.05
2019-02-07T11:24:22.632Z,3.20
2019-02-07T11:27:12.719Z,2.55
2019-02-07T11:29:47.525Z,3.37
2019-02-07T11:32:21.309Z,3.45
2019-02-07T11:34:57.808Z,3.15
2019-02-07T11:37:48.048Z,3.25
2019-02-07T11:40:36.758Z,3.25
2019-02-07T11:43:17.508Z,3.60
2019-02-07T11:46:07.786Z,2.52
2019-02-07T11:48:47.472Z,4.05
2019-02-07T11:51:24.230Z,3.22
2019-02-07T11:54:14.126Z,3.20
2019-02-07T11:57:03.666Z,3.27
2019-02-07T11:59:37.449Z,2.70
2019-02-07T12:02:18.192Z,2.87
2019-02-07T12:04:51.999Z,3.42
2019-02-07T12:07:25.787Z,2.92
2019-02-07T12:10:14.685Z,3.10
2019-02-07T12:12:48.456Z,2.65
2019-02-07T12:15:34.373Z,2.80
2019-02-07T12:18:16.657Z,2.98
2019-02-07T12:20:53.148Z,2.15
2019-02-07T12:23:43.263Z,2.83
2019-02-07T12:26:31.881Z,2.33
2019-02-07T12:29:08.709Z,2.42
2019-02-07T12:31:51.523Z,2.62
2019-02-07T12:34:26.618Z,2.50
2019-02-07T12:37:00.435Z,2.75
2019-02-07T12:39:36.974Z,2.10
2019-02-07T12:42:10.754Z,2.98
2019-02-07T12:45:01.296Z,2.33
2019-02-07T12:47:40.839Z,2.10
2019-02-07T12:50:30.937Z,3.33
2019-02-07T12:53:07.433Z,2.10
2019-02-07T12:55:51.705Z,2.27
2019-02-07T12:58:33.131Z,2.42
2019-02-07T13:01:06.920Z,2.30
2019-02-07T13:03:40.725Z,1.85
2019-02-07T13:06:29.453Z,2.55
2019-02-07T13:09:08.929Z,3.50
2019-02-07T13:11:42.719Z,2.13
2019-02-07T13:14:22.234Z,2.92
2019-02-07T13:17:01.862Z,1.85
2019-02-07T13:19:40.638Z,2.70
2019-02-07T13:22:14.284Z,3.17
2019-02-07T13:24:48.381Z,2.47
2019-02-07T13:27:24.968Z,2.33
2019-02-07T13:30:19.214Z,2.55
2019-02-07T13:32:52.305Z,3.08
2019-02-07T13:35:32.000Z,2.62
2019-02-07T13:38:11.667Z,1.95
2019-02-07T13:40:57.362Z,2.00
2019-02-07T13:43:47.539Z,2.17
2019-02-07T13:46:21.309Z,2.33
2019-02-07T13:49:01.136Z,2.35
2019-02-07T13:51:51.375Z,3.22
2019-02-07T13:54:25.211Z,2.87
2019-02-07T13:57:15.601Z,2.33
2019-02-07T13:59:52.391Z,2.77
2019-02-07T14:02:42.496Z,2.90
2019-02-07T14:05:16.267Z,2.17
2019-02-07T14:08:06.883Z,2.74
2019-02-07T14:10:40.955Z,2.25
2019-02-07T14:13:15.683Z,1.95
2019-02-07T14:16:04.405Z,2.17
2019-02-07T14:18:47.083Z,2.62
2019-02-07T14:21:29.989Z,2.30
2019-02-07T14:24:06.686Z,2.75
2019-02-07T14:26:43.211Z,3.37
2019-02-07T14:29:32.261Z,2.40
2019-02-07T14:32:11.758Z,2.77
2019-02-07T14:35:02.243Z,2.53
2019-02-07T14:37:52.194Z,2.60
2019-02-07T14:40:35.060Z,2.60
2019-02-07T14:43:08.851Z,1.90
2019-02-07T14:46:00.543Z,2.45
2019-02-07T14:48:32.894Z,2.62
2019-02-07T14:51:05.068Z,2.13
2019-02-07T14:53:37.200Z,2.40
2019-02-07T14:56:09.355Z,2.62
2019-02-07T14:58:41.494Z,2.47
2019-02-07T15:01:13.845Z,2.47
2019-02-07T15:03:46.013Z,2.40
2019-02-07T15:06:18.172Z,2.12
2019-02-07T15:08:50.356Z,2.60
2019-02-07T15:11:22.522Z,2.30
2019-02-07T15:13:54.735Z,2.13
2019-02-07T15:16:26.867Z,2.35
2019-02-07T15:18:58.991Z,1.83
2019-02-07T15:21:31.241Z,2.47
2019-02-07T15:24:03.385Z,2.62
2019-02-07T15:26:35.559Z,1.80
2019-02-07T15:29:07.703Z,2.37
2019-02-07T15:31:39.869Z,2.45
2019-02-07T15:34:12.020Z,2.37
2019-02-07T15:36:44.190Z,2.80
2019-02-07T15:39:17.361Z,3.00
2019-02-07T15:41:49.536Z,2.92
2019-02-07T15:44:21.674Z,2.12
2019-02-07T15:46:53.831Z,3.05
2019-02-07T15:49:26.008Z,2.25
2019-02-07T15:51:58.192Z,3.15
2019-02-07T15:54:30.638Z,2.08
2019-02-07T15:57:03.671Z,2.27
2019-02-07T15:59:37.467Z,2.67
2019-02-07T16:02:11.649Z,2.70
2019-02-07T16:04:43.810Z,2.58
2019-02-07T16:07:15.988Z,3.27
2019-02-07T16:09:48.171Z,3.15
2019-02-07T16:12:20.339Z,2.62
2019-02-07T16:14:52.557Z,2.98
2019-02-07T16:17:24.743Z,2.30
2019-02-07T16:19:56.884Z,3.45
2019-02-07T16:22:29.054Z,3.00
2019-02-07T16:25:01.203Z,3.60
2019-02-07T16:27:33.401Z,3.22
2019-02-07T16:30:07.198Z,3.00
2019-02-07T16:32:39.463Z,3.20
2019-02-07T16:35:13.084Z,3.02
2019-02-07T16:37:45.699Z,3.02
2019-02-07T16:40:21.888Z,3.30
2019-02-07T16:42:53.840Z,2.90
2019-02-07T16:45:26.338Z,3.00
2019-02-07T16:47:58.496Z,3.08
2019-02-07T16:50:34.193Z,3.72
2019-02-07T16:53:06.978Z,3.00
2019-02-07T16:55:39.127Z,3.33
2019-02-07T16:58:11.276Z,2.67
2019-02-07T17:00:43.797Z,2.83
2019-02-07T17:03:16.041Z,3.13
2019-02-07T17:05:48.513Z,2.77
2019-02-07T17:08:20.670Z,2.60
2019-02-07T17:10:52.847Z,3.02
2019-02-07T17:13:25.897Z,3.20
2019-02-07T17:15:59.615Z,3.05
2019-02-07T17:18:31.785Z,2.47
2019-02-07T17:21:11.459Z,3.40
2019-02-07T17:23:37.877Z,2.87
2019-02-07T17:26:10.073Z,2.22
2019-02-07T17:28:42.204Z,3.67
2019-02-07T17:31:14.370Z,3.72
2019-02-07T17:33:47.173Z,3.30
2019-02-07T17:36:19.851Z,2.45
2019-02-07T17:38:52.075Z,2.25
2019-02-07T17:41:25.571Z,2.90
2019-02-07T17:43:57.909Z,2.57
2019-02-07T17:46:34.729Z,2.80
2019-02-07T17:49:07.506Z,2.80
2019-02-07T17:51:39.880Z,3.17
2019-02-07T17:54:18.627Z,3.37
2019-02-07T17:56:46.111Z,3.70
2019-02-07T17:59:18.608Z,2.75
2019-02-07T18:01:50.784Z,3.12
2019-02-07T18:04:22.985Z,2.80
2019-02-07T18:06:55.190Z,2.37
2019-02-07T18:09:27.350Z,2.92
2019-02-07T18:11:59.827Z,2.58
2019-02-07T18:14:31.985Z,2.87
2019-02-07T18:17:04.132Z,2.92
2019-02-07T18:19:36.310Z,3.20
2019-02-07T18:22:08.533Z,2.20
2019-02-07T18:24:41.093Z,4.25
2019-02-07T18:27:13.241Z,3.22
2019-02-07T18:29:45.378Z,3.80
2019-02-07T18:32:17.531Z,3.02
2019-02-07T18:34:49.686Z,4.37
2019-02-07T18:37:22.108Z,3.75
2019-02-07T18:39:54.251Z,3.57
2019-02-07T18:42:26.390Z,3.25
2019-02-07T18:45:01.056Z,3.10
2019-02-07T18:47:32.492Z,2.35
2019-02-07T18:50:06.297Z,2.62
2019-02-07T18:52:38.437Z,2.50
2019-02-07T18:55:10.604Z,3.40
2019-02-07T18:57:43.178Z,2.85
2019-02-07T19:00:19.937Z,3.15
2019-02-07T19:02:52.067Z,2.87
2019-02-07T19:05:24.447Z,2.27
2019-02-07T19:07:56.599Z,2.52
2019-02-07T19:10:29.296Z,3.20
2019-02-07T19:13:02.030Z,3.15
2019-02-07T19:15:36.247Z,2.77
2019-02-07T19:18:08.867Z,3.37
2019-02-07T19:20:41.215Z,3.70
2019-02-07T19:23:13.554Z,4.15
2019-02-07T19:25:45.889Z,3.25
2019-02-07T19:28:18.032Z,3.30
2019-02-07T19:30:50.275Z,4.55
2019-02-07T19:33:22.679Z,3.27
2019-02-07T19:35:55.246Z,3.25
2019-02-07T19:38:27.543Z,3.05
2019-02-07T19:40:59.688Z,3.40
2019-02-07T19:43:31.828Z,3.35
2019-02-07T19:46:04.064Z,3.47
2019-02-07T19:48:36.268Z,3.30
2019-02-07T19:51:09.550Z,2.83
2019-02-07T19:53:41.862Z,2.30
2019-02-07T19:56:14.128Z,2.87
2019-02-07T19:58:47.204Z,2.37
2019-02-07T20:01:19.335Z,2.80
2019-02-07T20:03:51.473Z,2.60
2019-02-07T20:06:23.628Z,2.50
2019-02-07T20:08:55.804Z,2.92
2019-02-07T20:11:28.034Z,2.62
2019-02-07T20:14:00.241Z,2.80
2019-02-07T20:16:32.387Z,2.17
2019-02-07T20:19:04.830Z,3.20
2019-02-07T20:21:37.062Z,2.33
2019-02-07T20:24:09.297Z,2.45
2019-02-07T20:26:41.554Z,2.75
2019-02-07T20:29:13.872Z,1.93
2019-02-07T20:31:46.021Z,2.10
2019-02-07T20:34:18.162Z,2.00
2019-02-07T20:36:50.312Z,2.25
2019-02-07T20:39:22.448Z,1.73
2019-02-07T20:41:54.980Z,1.32
2019-02-07T20:44:27.474Z,1.70
2019-02-07T20:46:59.723Z,1.27
2019-02-07T20:49:31.919Z,1.20
2019-02-07T20:52:04.091Z,1.30
2019-02-07T20:54:36.242Z,1.22
2019-02-07T20:57:08.385Z,1.10
2019-02-07T20:59:40.525Z,0.72
2019-02-07T21:02:12.697Z,0.98
2019-02-07T21:04:45.300Z,1.07
2019-02-07T21:07:17.508Z,0.82
2019-02-07T21:09:49.713Z,0.90
2019-02-07T21:12:21.946Z,1.12
2019-02-07T21:14:54.157Z,1.10
2019-02-07T21:17:26.316Z,1.20
2019-02-07T21:19:58.456Z,0.70
2019-02-07T21:22:34.627Z,1.22
2019-02-07T21:25:06.141Z,0.72
2019-02-07T21:27:38.372Z,0.88
2019-02-07T21:30:12.215Z,1.05
2019-02-07T21:32:44.414Z,0.70
2019-02-07T21:35:17.720Z,1.10
2019-02-07T21:37:49.877Z,1.07
2019-02-07T21:40:22.988Z,1.10
2019-02-07T21:42:55.546Z,1.12
2019-02-07T21:45:27.746Z,0.93
2019-02-07T21:47:59.931Z,1.00
2019-02-07T21:50:32.324Z,1.07
2019-02-07T21:53:05.377Z,0.98
2019-02-07T21:55:38.396Z,0.85
2019-02-07T21:58:12.157Z,1.10
2019-02-07T22:00:45.268Z,1.15
2019-02-07T22:03:17.521Z,1.00
2019-02-07T22:05:49.650Z,1.00
2019-02-07T22:08:21.801Z,1.25
2019-02-07T22:10:53.952Z,1.82
2019-02-07T22:13:26.110Z,1.20
2019-02-07T22:15:58.243Z,1.37
2019-02-07T22:18:30.504Z,1.30
2019-02-07T22:21:02.886Z,2.37
2019-02-07T22:23:35.295Z,1.20
2019-02-07T22:26:07.441Z,1.02
2019-02-07T22:28:39.597Z,1.00
2019-02-07T22:31:11.732Z,1.30
2019-02-07T22:33:43.879Z,1.22
2019-02-07T22:36:16.404Z,1.27
2019-02-07T22:38:48.591Z,1.12
2019-02-07T22:41:20.977Z,1.40
2019-02-07T22:43:53.415Z,1.60
2019-02-07T22:46:25.594Z,1.10
2019-02-07T22:48:58.004Z,1.30
2019-02-07T22:51:30.145Z,1.20
2019-02-07T22:54:03.554Z,1.00
2019-02-07T22:56:35.686Z,1.50
2019-02-07T22:59:07.871Z,1.50
2019-02-07T23:01:40.771Z,1.65
2019-02-07T23:04:12.937Z,1.50
2019-02-07T23:06:45.102Z,1.62
2019-02-07T23:09:17.328Z,1.50
2019-02-07T23:11:49.484Z,1.45
2019-02-07T23:14:21.664Z,1.17
2019-02-07T23:16:53.820Z,1.12
2019-02-07T23:19:25.990Z,1.00
2019-02-07T23:21:58.137Z,1.42
2019-02-07T23:24:30.301Z,1.30
2019-02-07T23:27:02.554Z,0.93
2019-02-07T23:29:34.759Z,0.95
2019-02-07T23:32:07.607Z,1.42
2019-02-07T23:34:39.767Z,1.20
2019-02-07T23:37:12.294Z,0.93
2019-02-07T23:39:44.454Z,0.80
2019-02-07T23:42:16.707Z,1.17
2019-02-07T23:44:48.856Z,0.82
2019-02-07T23:47:20.995Z,1.22
2019-02-07T23:49:53.588Z,1.07
2019-02-07T23:52:25.745Z,0.90
2019-02-07T23:54:57.914Z,1.40
2019-02-07T23:57:30.057Z,1.10
